sensor_id;sensor_type;location;lat;lon;timestamp;pressure;altitude;pressure_sealevel;temperature;humidity
52249;BME280;38541;48.130;8.378;2022-09-13T00:01:21;92532.75;;;12.44;68.12
52249;BME280;38541;48.130;8.378;2022-09-13T00:03:47;92531.44;;;12.41;68.39
52249;BME280;38541;48.130;8.378;2022-09-13T00:06:17;92528.84;;;12.36;68.15
52249;BME280;38541;48.130;8.378;2022-09-13T00:08:44;92530.44;;;12.37;69.02
52249;BME280;38541;48.130;8.378;2022-09-13T00:11:17;92530.44;;;12.37;69.27
52249;BME280;38541;48.130;8.378;2022-09-13T00:13:45;92527.53;;;12.38;70.68
52249;BME280;38541;48.130;8.378;2022-09-13T00:16:14;92527.28;;;12.35;71.17
52249;BME280;38541;48.130;8.378;2022-09-13T00:18:41;92526.72;;;12.38;71.56
52249;BME280;38541;48.130;8.378;2022-09-13T00:21:13;92523.00;;;12.44;70.75
52249;BME280;38541;48.130;8.378;2022-09-13T00:23:48;92516.38;;;12.47;70.74
52249;BME280;38541;48.130;8.378;2022-09-13T00:26:24;92514.84;;;12.40;70.57
52249;BME280;38541;48.130;8.378;2022-09-13T00:28:51;92517.56;;;12.35;70.10
52249;BME280;38541;48.130;8.378;2022-09-13T00:31:19;92515.75;;;12.31;69.74
52249;BME280;38541;48.130;8.378;2022-09-13T00:33:46;92513.16;;;12.25;69.87
52249;BME280;38541;48.130;8.378;2022-09-13T00:36:13;92509.50;;;12.21;69.96
52249;BME280;38541;48.130;8.378;2022-09-13T00:38:41;92516.38;;;12.17;69.74
52249;BME280;38541;48.130;8.378;2022-09-13T00:41:13;92507.72;;;12.11;69.32
52249;BME280;38541;48.130;8.378;2022-09-13T00:43:45;92513.81;;;12.12;70.18
52249;BME280;38541;48.130;8.378;2022-09-13T00:46:16;92513.25;;;12.15;70.50
52249;BME280;38541;48.130;8.378;2022-09-13T00:48:48;92505.41;;;12.10;70.16
52249;BME280;38541;48.130;8.378;2022-09-13T00:51:17;92505.72;;;12.03;69.85
52249;BME280;38541;48.130;8.378;2022-09-13T00:53:48;92511.22;;;12.07;71.18
52249;BME280;38541;48.130;8.378;2022-09-13T00:56:24;92511.78;;;12.04;70.40
52249;BME280;38541;48.130;8.378;2022-09-13T00:59:03;92504.44;;;11.95;70.56
52249;BME280;38541;48.130;8.378;2022-09-13T01:01:36;92510.19;;;12.03;71.14
52249;BME280;38541;48.130;8.378;2022-09-13T01:04:06;92517.31;;;12.02;70.17
52249;BME280;38541;48.130;8.378;2022-09-13T01:06:38;92509.69;;;11.95;70.28
52249;BME280;38541;48.130;8.378;2022-09-13T01:09:06;92504.97;;;11.92;70.65
52249;BME280;38541;48.130;8.378;2022-09-13T01:13:59;92515.56;;;11.82;69.80
52249;BME280;38541;48.130;8.378;2022-09-13T01:16:26;92510.09;;;11.78;69.99
52249;BME280;38541;48.130;8.378;2022-09-13T01:18:53;92505.59;;;11.79;70.36
52249;BME280;38541;48.130;8.378;2022-09-13T01:30:02;92501.19;;;11.69;69.84
52249;BME280;38541;48.130;8.378;2022-09-13T01:35:35;92498.06;;;11.67;70.54
52249;BME280;38541;48.130;8.378;2022-09-13T01:41:08;92489.41;;;11.61;71.09
52249;BME280;38541;48.130;8.378;2022-09-13T01:44:13;92488.41;;;11.57;70.81
52249;BME280;38541;48.130;8.378;2022-09-13T01:47:02;92486.56;;;11.52;70.72
52249;BME280;38541;48.130;8.378;2022-09-13T01:58:20;92496.16;;;11.33;69.97
52249;BME280;38541;48.130;8.378;2022-09-13T02:03:36;92499.94;;;11.21;70.28
52249;BME280;38541;48.130;8.378;2022-09-13T02:06:13;92496.47;;;11.31;71.56
52249;BME280;38541;48.130;8.378;2022-09-13T02:08:47;92501.16;;;11.34;71.86
52249;BME280;38541;48.130;8.378;2022-09-13T02:11:16;92495.38;;;11.37;71.82
52249;BME280;38541;48.130;8.378;2022-09-13T02:13:50;92497.69;;;11.44;71.62
52249;BME280;38541;48.130;8.378;2022-09-13T02:16:26;92495.88;;;11.39;70.77
52249;BME280;38541;48.130;8.378;2022-09-13T02:18:58;92494.09;;;11.30;70.91
52249;BME280;38541;48.130;8.378;2022-09-13T02:21:28;92505.94;;;11.27;71.34
52249;BME280;38541;48.130;8.378;2022-09-13T02:24:01;92508.56;;;11.27;71.24
52249;BME280;38541;48.130;8.378;2022-09-13T02:26:29;92515.44;;;11.23;71.38
52249;BME280;38541;48.130;8.378;2022-09-13T02:29:00;92517.03;;;11.19;71.86
52249;BME280;38541;48.130;8.378;2022-09-13T02:31:34;92506.25;;;11.20;72.35
52249;BME280;38541;48.130;8.378;2022-09-13T02:34:06;92510.94;;;11.28;72.49
52249;BME280;38541;48.130;8.378;2022-09-13T02:36:37;92508.56;;;11.27;72.13
52249;BME280;38541;48.130;8.378;2022-09-13T02:39:14;92519.63;;;11.29;72.28
52249;BME280;38541;48.130;8.378;2022-09-13T02:42:19;92507.53;;;11.28;71.74
52249;BME280;38541;48.130;8.378;2022-09-13T02:44:55;92505.41;;;11.25;71.73
52249;BME280;38541;48.130;8.378;2022-09-13T02:47:44;92496.00;;;11.19;71.79
52249;BME280;38541;48.130;8.378;2022-09-13T02:58:38;92491.59;;;11.04;71.42
52249;BME280;38541;48.130;8.378;2022-09-13T03:01:07;92489.53;;;11.01;72.06
52249;BME280;38541;48.130;8.378;2022-09-13T03:03:34;92492.41;;;10.99;72.54
52249;BME280;38541;48.130;8.378;2022-09-13T03:06:01;92486.63;;;10.97;73.20
52249;BME280;38541;48.130;8.378;2022-09-13T03:08:28;92486.91;;;11.01;73.77
52249;BME280;38541;48.130;8.378;2022-09-13T03:11:19;92480.84;;;11.00;73.74
52249;BME280;38541;48.130;8.378;2022-09-13T03:17:06;92484.50;;;11.09;73.43
52249;BME280;38541;48.130;8.378;2022-09-13T03:30:52;92475.31;;;10.96;72.47
52249;BME280;38541;48.130;8.378;2022-09-13T03:36:24;92471.94;;;10.96;72.70
52249;BME280;38541;48.130;8.378;2022-09-13T03:38:59;92474.56;;;10.96;72.81
52249;BME280;38541;48.130;8.378;2022-09-13T03:41:32;92469.34;;;10.91;72.76
52249;BME280;38541;48.130;8.378;2022-09-13T03:44:04;92472.47;;;10.93;72.91
52249;BME280;38541;48.130;8.378;2022-09-13T03:46:41;92472.22;;;10.89;73.16
52249;BME280;38541;48.130;8.378;2022-09-13T03:49:13;92461.44;;;10.91;73.57
52249;BME280;38541;48.130;8.378;2022-09-13T03:51:43;92479.06;;;10.85;71.98
52249;BME280;38541;48.130;8.378;2022-09-13T03:54:16;92473.06;;;10.79;72.13
52249;BME280;38541;48.130;8.378;2022-09-13T03:56:43;92475.16;;;10.77;72.15
52249;BME280;38541;48.130;8.378;2022-09-13T03:59:29;92478.31;;;10.79;72.36
52249;BME280;38541;48.130;8.378;2022-09-13T04:01:56;92478.28;;;10.84;72.48
52249;BME280;38541;48.130;8.378;2022-09-13T04:04:22;92479.06;;;10.85;72.81
52249;BME280;38541;48.130;8.378;2022-09-13T04:06:49;92475.66;;;10.84;72.46
52249;BME280;38541;48.130;8.378;2022-09-13T04:09:15;92474.38;;;10.82;72.28
52249;BME280;38541;48.130;8.378;2022-09-13T04:11:42;92474.09;;;10.78;71.87
52249;BME280;38541;48.130;8.378;2022-09-13T04:14:08;92477.78;;;10.77;71.86
52249;BME280;38541;48.130;8.378;2022-09-13T04:16:36;92483.06;;;10.77;72.43
52249;BME280;38541;48.130;8.378;2022-09-13T04:19:02;92479.09;;;10.75;72.79
52249;BME280;38541;48.130;8.378;2022-09-13T04:21:29;92483.06;;;10.72;73.66
52249;BME280;38541;48.130;8.378;2022-09-13T04:23:56;92487.28;;;10.73;73.70
52249;BME280;38541;48.130;8.378;2022-09-13T04:26:23;92482.03;;;10.73;73.46
52249;BME280;38541;48.130;8.378;2022-09-13T04:28:51;92483.59;;;10.74;72.91
52249;BME280;38541;48.130;8.378;2022-09-13T04:31:18;92479.91;;;10.75;73.40
52249;BME280;38541;48.130;8.378;2022-09-13T04:33:45;92478.34;;;10.74;72.76
52249;BME280;38541;48.130;8.378;2022-09-13T04:36:11;92469.94;;;10.72;72.76
52249;BME280;38541;48.130;8.378;2022-09-13T04:38:38;92475.72;;;10.69;73.15
52249;BME280;38541;48.130;8.378;2022-09-13T04:41:04;92475.44;;;10.70;73.27
52249;BME280;38541;48.130;8.378;2022-09-13T04:43:31;92481.50;;;10.71;73.07
52249;BME280;38541;48.130;8.378;2022-09-13T04:46:00;92482.03;;;10.73;73.68
52249;BME280;38541;48.130;8.378;2022-09-13T04:48:27;92483.84;;;10.73;73.81
52249;BME280;38541;48.130;8.378;2022-09-13T04:51:00;92483.06;;;10.72;73.93
52249;BME280;38541;48.130;8.378;2022-09-13T04:53:27;92485.97;;;10.70;74.99
52249;BME280;38541;48.130;8.378;2022-09-13T04:55:59;92485.16;;;10.75;75.47
52249;BME280;38541;48.130;8.378;2022-09-13T04:58:26;92487.75;;;10.80;75.16
52249;BME280;38541;48.130;8.378;2022-09-13T05:00:52;92496.13;;;10.88;74.63
52249;BME280;38541;48.130;8.378;2022-09-13T05:03:22;92494.56;;;10.92;74.48
52249;BME280;38541;48.130;8.378;2022-09-13T05:05:48;92495.59;;;10.96;74.62
52249;BME280;38541;48.130;8.378;2022-09-13T05:08:15;92495.84;;;10.99;74.76
52249;BME280;38541;48.130;8.378;2022-09-13T05:10:41;92495.03;;;10.99;74.99
52249;BME280;38541;48.130;8.378;2022-09-13T05:13:08;92500.25;;;11.04;75.33
52249;BME280;38541;48.130;8.378;2022-09-13T05:15:35;92500.78;;;11.11;75.20
52249;BME280;38541;48.130;8.378;2022-09-13T05:18:01;92500.75;;;11.17;74.87
52249;BME280;38541;48.130;8.378;2022-09-13T05:20:27;92502.28;;;11.23;74.82
52249;BME280;38541;48.130;8.378;2022-09-13T05:22:54;92492.28;;;11.25;74.66
52249;BME280;38541;48.130;8.378;2022-09-13T05:25:21;92491.00;;;11.22;73.42
52249;BME280;38541;48.130;8.378;2022-09-13T05:27:51;92502.06;;;11.14;73.31
52249;BME280;38541;48.130;8.378;2022-09-13T05:30:17;92504.19;;;11.12;73.49
52249;BME280;38541;48.130;8.378;2022-09-13T05:32:44;92508.16;;;11.09;74.12
52249;BME280;38541;48.130;8.378;2022-09-13T05:35:11;92507.09;;;11.05;74.99
52249;BME280;38541;48.130;8.378;2022-09-13T05:37:38;92504.47;;;11.05;75.78
52249;BME280;38541;48.130;8.378;2022-09-13T05:40:05;92502.31;;;11.18;75.80
52249;BME280;38541;48.130;8.378;2022-09-13T05:42:37;92502.81;;;11.20;74.85
52249;BME280;38541;48.130;8.378;2022-09-13T05:45:04;92499.41;;;11.19;74.83
52249;BME280;38541;48.130;8.378;2022-09-13T05:47:32;92498.84;;;11.27;74.53
52249;BME280;38541;48.130;8.378;2022-09-13T05:49:58;92497.22;;;11.32;74.61
52249;BME280;38541;48.130;8.378;2022-09-13T05:52:36;92495.41;;;11.32;74.58
52249;BME280;38541;48.130;8.378;2022-09-13T05:55:03;92506.44;;;11.34;74.30
52249;BME280;38541;48.130;8.378;2022-09-13T05:57:29;92494.31;;;11.38;74.86
52249;BME280;38541;48.130;8.378;2022-09-13T05:59:56;92491.63;;;11.49;75.04
52249;BME280;38541;48.130;8.378;2022-09-13T06:02:22;92491.56;;;11.54;74.94
52249;BME280;38541;48.130;8.378;2022-09-13T06:04:49;92494.91;;;11.65;74.99
52249;BME280;38541;48.130;8.378;2022-09-13T06:07:16;92488.00;;;11.74;74.75
52249;BME280;38541;48.130;8.378;2022-09-13T06:09:43;92486.13;;;11.80;74.85
52249;BME280;38541;48.130;8.378;2022-09-13T06:12:10;92484.47;;;11.89;74.75
52249;BME280;38541;48.130;8.378;2022-09-13T06:14:36;92484.69;;;11.93;74.70
52249;BME280;38541;48.130;8.378;2022-09-13T06:17:03;92486.81;;;11.91;74.65
52249;BME280;38541;48.130;8.378;2022-09-13T06:19:29;92483.41;;;11.90;73.94
52249;BME280;38541;48.130;8.378;2022-09-13T06:21:56;92484.69;;;11.93;73.91
52249;BME280;38541;48.130;8.378;2022-09-13T06:24:22;92481.53;;;11.96;74.33
52249;BME280;38541;48.130;8.378;2022-09-13T06:26:49;92482.81;;;12.04;74.43
52249;BME280;38541;48.130;8.378;2022-09-13T06:29:16;92478.50;;;12.13;74.58
52249;BME280;38541;48.130;8.378;2022-09-13T06:31:42;92476.06;;;12.22;74.41
52249;BME280;38541;48.130;8.378;2022-09-13T06:34:11;92476.72;;;12.33;74.42
52249;BME280;38541;48.130;8.378;2022-09-13T06:36:41;92481.38;;;12.41;74.99
52249;BME280;38541;48.130;8.378;2022-09-13T06:39:07;92482.91;;;12.47;74.95
52249;BME280;38541;48.130;8.378;2022-09-13T06:41:34;92475.75;;;12.53;74.97
52249;BME280;38541;48.130;8.378;2022-09-13T06:44:01;92476.97;;;12.61;74.89
52249;BME280;38541;48.130;8.378;2022-09-13T06:46:29;92478.25;;;12.63;74.66
52249;BME280;38541;48.130;8.378;2022-09-13T06:49:04;92472.66;;;12.70;74.75
52249;BME280;38541;48.130;8.378;2022-09-13T06:51:32;92470.97;;;12.79;74.00
52249;BME280;38541;48.130;8.378;2022-09-13T06:53:59;92476.94;;;12.85;73.82
52249;BME280;38541;48.130;8.378;2022-09-13T06:56:36;92478.16;;;12.93;73.74
52249;BME280;38541;48.130;8.378;2022-09-13T06:59:05;92488.66;;;12.98;73.76
52249;BME280;38541;48.130;8.378;2022-09-13T07:01:35;92478.06;;;13.03;73.66
52249;BME280;38541;48.130;8.378;2022-09-13T07:04:07;92478.47;;;13.10;74.11
52249;BME280;38541;48.130;8.378;2022-09-13T07:06:37;92478.84;;;13.23;73.82
52249;BME280;38541;48.130;8.378;2022-09-13T07:09:06;92471.84;;;13.32;73.39
52249;BME280;38541;48.130;8.378;2022-09-13T07:11:35;92475.66;;;13.45;72.91
52249;BME280;38541;48.130;8.378;2022-09-13T07:14:02;92473.59;;;13.61;72.48
52249;BME280;38541;48.130;8.378;2022-09-13T07:16:31;92470.78;;;13.72;72.45
52249;BME280;38541;48.130;8.378;2022-09-13T07:18:59;92474.56;;;13.84;72.06
52249;BME280;38541;48.130;8.378;2022-09-13T07:21:27;92470.91;;;14.00;72.29
52249;BME280;38541;48.130;8.378;2022-09-13T07:23:54;92470.91;;;14.13;71.92
52249;BME280;38541;48.130;8.378;2022-09-13T07:26:22;92465.38;;;14.29;71.70
52249;BME280;38541;48.130;8.378;2022-09-13T07:28:52;92462.25;;;14.41;71.80
52249;BME280;38541;48.130;8.378;2022-09-13T07:31:21;92468.34;;;14.55;71.77
52249;BME280;38541;48.130;8.378;2022-09-13T07:33:53;92462.28;;;14.69;71.88
52249;BME280;38541;48.130;8.378;2022-09-13T07:36:21;92457.78;;;14.83;71.93
52249;BME280;38541;48.130;8.378;2022-09-13T07:38:48;92459.63;;;14.97;73.00
52249;BME280;38541;48.130;8.378;2022-09-13T07:41:17;92457.75;;;15.11;73.88
52249;BME280;38541;48.130;8.378;2022-09-13T07:43:44;92455.06;;;15.25;73.60
52249;BME280;38541;48.130;8.378;2022-09-13T07:46:17;92455.81;;;15.40;74.32
52249;BME280;38541;48.130;8.378;2022-09-13T07:48:45;92450.97;;;15.56;74.04
52249;BME280;38541;48.130;8.378;2022-09-13T07:51:20;92455.91;;;15.72;74.46
52249;BME280;38541;48.130;8.378;2022-09-13T07:53:49;92467.22;;;15.86;74.52
52249;BME280;38541;48.130;8.378;2022-09-13T07:56:25;92456.41;;;15.96;74.93
52249;BME280;38541;48.130;8.378;2022-09-13T07:58:52;92460.38;;;16.08;73.52
52249;BME280;38541;48.130;8.378;2022-09-13T08:01:25;92462.19;;;16.21;73.80
52249;BME280;38541;48.130;8.378;2022-09-13T08:03:53;92469.25;;;16.35;73.60
52249;BME280;38541;48.130;8.378;2022-09-13T08:06:21;92465.72;;;16.48;72.57
52249;BME280;38541;48.130;8.378;2022-09-13T08:08:48;92464.06;;;16.61;71.46
52249;BME280;38541;48.130;8.378;2022-09-13T08:11:17;92459.25;;;16.72;70.77
52249;BME280;38541;48.130;8.378;2022-09-13T08:13:45;92470.56;;;16.87;69.46
52249;BME280;38541;48.130;8.378;2022-09-13T08:16:13;92468.91;;;17.00;69.30
52249;BME280;38541;48.130;8.378;2022-09-13T08:18:45;92475.16;;;17.13;70.40
52249;BME280;38541;48.130;8.378;2022-09-13T08:21:12;92475.34;;;17.25;70.80
52249;BME280;38541;48.130;8.378;2022-09-13T08:23:39;92473.97;;;17.36;72.07
52249;BME280;38541;48.130;8.378;2022-09-13T08:26:06;92469.13;;;17.47;72.30
52249;BME280;38541;48.130;8.378;2022-09-13T08:28:37;92468.97;;;17.61;71.87
52249;BME280;38541;48.130;8.378;2022-09-13T08:31:15;92474.94;;;17.76;70.94
52249;BME280;38541;48.130;8.378;2022-09-13T08:33:44;92481.34;;;17.92;69.85
52249;BME280;38541;48.130;8.378;2022-09-13T08:36:13;92474.16;;;18.02;69.04
52249;BME280;38541;48.130;8.378;2022-09-13T08:38:47;92473.66;;;18.08;68.33
52249;BME280;38541;48.130;8.378;2022-09-13T08:44:29;92477.84;;;18.36;65.18
52249;BME280;38541;48.130;8.378;2022-09-13T08:47:03;92480.16;;;18.46;64.65
52249;BME280;38541;48.130;8.378;2022-09-13T08:49:40;92478.25;;;18.56;64.50
52249;BME280;38541;48.130;8.378;2022-09-13T08:54:41;92475.72;;;18.68;63.17
52249;BME280;38541;48.130;8.378;2022-09-13T08:57:16;92464.25;;;18.76;61.14
52249;BME280;38541;48.130;8.378;2022-09-13T08:59:57;92459.50;;;18.91;60.21
52249;BME280;38541;48.130;8.378;2022-09-13T09:05:32;92457.22;;;19.10;61.95
52249;BME280;38541;48.130;8.378;2022-09-13T09:08:18;92451.25;;;19.14;60.14
52249;BME280;38541;48.130;8.378;2022-09-13T09:10:50;92442.91;;;19.24;59.31
52249;BME280;38541;48.130;8.378;2022-09-13T09:13:31;92446.47;;;19.28;58.09
52249;BME280;38541;48.130;8.378;2022-09-13T09:16:04;92432.94;;;19.33;56.16
52249;BME280;38541;48.130;8.378;2022-09-13T09:18:34;92441.19;;;19.41;56.77
52249;BME280;38541;48.130;8.378;2022-09-13T09:21:03;92445.69;;;19.49;56.43
52249;BME280;38541;48.130;8.378;2022-09-13T09:23:42;92440.75;;;19.60;55.25
52249;BME280;38541;48.130;8.378;2022-09-13T09:26:19;92444.91;;;19.70;54.70
52249;BME280;38541;48.130;8.378;2022-09-13T09:28:53;92443.28;;;19.77;55.05
52249;BME280;38541;48.130;8.378;2022-09-13T09:31:36;92445.22;;;19.89;55.89
52249;BME280;38541;48.130;8.378;2022-09-13T09:34:12;92441.25;;;19.95;56.73
52249;BME280;38541;48.130;8.378;2022-09-13T09:36:51;92455.75;;;20.07;56.10
52249;BME280;38541;48.130;8.378;2022-09-13T09:39:19;92458.91;;;20.21;55.86
52249;BME280;38541;48.130;8.378;2022-09-13T09:41:46;92467.84;;;20.38;55.82
52249;BME280;38541;48.130;8.378;2022-09-13T09:44:17;92467.28;;;20.45;55.97
52249;BME280;38541;48.130;8.378;2022-09-13T09:46:47;92470.19;;;20.52;56.15
52249;BME280;38541;48.130;8.378;2022-09-13T09:49:19;92470.09;;;20.61;56.26
52249;BME280;38541;48.130;8.378;2022-09-13T09:52:08;92464.31;;;20.71;56.32
52249;BME280;38541;48.130;8.378;2022-09-13T09:54:35;92463.13;;;20.81;57.28
52249;BME280;38541;48.130;8.378;2022-09-13T09:57:04;92464.81;;;20.86;57.16
52249;BME280;38541;48.130;8.378;2022-09-13T09:59:33;92464.91;;;21.02;57.39
52249;BME280;38541;48.130;8.378;2022-09-13T10:02:12;92466.03;;;21.13;56.18
52249;BME280;38541;48.130;8.378;2022-09-13T10:04:40;92461.22;;;21.31;54.78
52249;BME280;38541;48.130;8.378;2022-09-13T10:07:27;92454.44;;;21.46;55.96
52249;BME280;38541;48.130;8.378;2022-09-13T10:10:02;92448.81;;;21.64;55.65
52249;BME280;38541;48.130;8.378;2022-09-13T10:12:36;92452.13;;;21.86;56.00
52249;BME280;38541;48.130;8.378;2022-09-13T10:15:19;92453.28;;;22.01;54.68
52249;BME280;38541;48.130;8.378;2022-09-13T10:18:15;92454.28;;;22.24;54.12
52249;BME280;38541;48.130;8.378;2022-09-13T10:21:19;92455.06;;;22.54;52.73
52249;BME280;38541;48.130;8.378;2022-09-13T10:23:47;92454.13;;;22.78;52.19
52249;BME280;38541;48.130;8.378;2022-09-13T10:26:24;92450.13;;;23.04;51.71
52249;BME280;38541;48.130;8.378;2022-09-13T10:28:55;92448.19;;;23.20;49.42
52249;BME280;38541;48.130;8.378;2022-09-13T10:31:33;92441.88;;;23.45;49.74
52249;BME280;38541;48.130;8.378;2022-09-13T10:34:04;92440.69;;;23.62;50.17
52249;BME280;38541;48.130;8.378;2022-09-13T10:36:34;92438.09;;;23.85;49.33
52249;BME280;38541;48.130;8.378;2022-09-13T10:39:20;92445.16;;;24.13;48.49
52249;BME280;38541;48.130;8.378;2022-09-13T10:44:25;92439.66;;;24.26;47.47
52249;BME280;38541;48.130;8.378;2022-09-13T10:46:53;92438.38;;;24.19;47.97
52249;BME280;38541;48.130;8.378;2022-09-13T10:49:43;92429.63;;;24.22;46.56
52249;BME280;38541;48.130;8.378;2022-09-13T10:52:28;92431.81;;;24.17;47.00
52249;BME280;38541;48.130;8.378;2022-09-13T10:57:54;92417.41;;;24.05;47.10
52249;BME280;38541;48.130;8.378;2022-09-13T11:00:34;92421.28;;;24.08;47.86
52249;BME280;38541;48.130;8.378;2022-09-13T11:11:51;92388.06;;;23.97;48.05
52249;BME280;38541;48.130;8.378;2022-09-13T11:14:37;92390.06;;;24.00;47.97
52249;BME280;38541;48.130;8.378;2022-09-13T11:22:58;92392.03;;;24.22;47.67
52249;BME280;38541;48.130;8.378;2022-09-13T11:26:06;92392.34;;;24.17;47.67
52249;BME280;38541;48.130;8.378;2022-09-13T11:28:59;92396.81;;;24.33;46.54
52249;BME280;38541;48.130;8.378;2022-09-13T11:34:19;92396.13;;;24.83;48.29
52249;BME280;38541;48.130;8.378;2022-09-13T11:37:03;92394.16;;;25.06;46.03
52249;BME280;38541;48.130;8.378;2022-09-13T11:39:48;92393.06;;;25.11;45.03
52249;BME280;38541;48.130;8.378;2022-09-13T11:42:27;92391.34;;;25.26;45.17
52249;BME280;38541;48.130;8.378;2022-09-13T11:47:55;92388.88;;;25.71;45.09
52249;BME280;38541;48.130;8.378;2022-09-13T11:53:55;92383.53;;;26.09;42.45
52249;BME280;38541;48.130;8.378;2022-09-13T11:56:43;92374.81;;;26.19;41.86
52249;BME280;38541;48.130;8.378;2022-09-13T11:59:43;92371.97;;;26.43;43.22
52249;BME280;38541;48.130;8.378;2022-09-13T12:05:01;92370.50;;;26.53;40.65
52249;BME280;38541;48.130;8.378;2022-09-13T12:07:58;92375.63;;;26.69;41.93
52249;BME280;38541;48.130;8.378;2022-09-13T12:10:29;92369.53;;;26.75;41.66
52249;BME280;38541;48.130;8.378;2022-09-13T12:16:21;92368.88;;;26.86;39.84
52249;BME280;38541;48.130;8.378;2022-09-13T12:18:54;92363.06;;;26.84;40.91
52249;BME280;38541;48.130;8.378;2022-09-13T12:21:27;92366.06;;;26.78;40.13
52249;BME280;38541;48.130;8.378;2022-09-13T12:26:30;92362.94;;;26.69;40.81
52249;BME280;38541;48.130;8.378;2022-09-13T12:29:27;92358.19;;;26.52;40.35
52249;BME280;38541;48.130;8.378;2022-09-13T12:31:58;92358.53;;;26.50;39.01
52249;BME280;38541;48.130;8.378;2022-09-13T12:34:39;92365.06;;;26.45;40.63
52249;BME280;38541;48.130;8.378;2022-09-13T12:43:08;92367.00;;;26.07;39.97
52249;BME280;38541;48.130;8.378;2022-09-13T12:49:03;92369.81;;;25.84;41.00
52249;BME280;38541;48.130;8.378;2022-09-13T13:00:24;92377.53;;;25.55;42.86
52249;BME280;38541;48.130;8.378;2022-09-13T13:03:00;92377.13;;;25.53;42.33
52249;BME280;38541;48.130;8.378;2022-09-13T13:05:34;92368.66;;;25.50;42.42
52249;BME280;38541;48.130;8.378;2022-09-13T13:08:26;92374.81;;;25.51;43.32
52249;BME280;38541;48.130;8.378;2022-09-13T13:11:07;92375.63;;;25.55;42.87
52249;BME280;38541;48.130;8.378;2022-09-13T13:13:41;92378.00;;;25.60;43.75
52249;BME280;38541;48.130;8.378;2022-09-13T13:18:51;92372.28;;;25.66;43.58
52249;BME280;38541;48.130;8.378;2022-09-13T13:21:25;92365.03;;;25.70;44.65
52249;BME280;38541;48.130;8.378;2022-09-13T13:36:56;92373.59;;;25.79;44.43
52249;BME280;38541;48.130;8.378;2022-09-13T13:50:07;92363.91;;;26.09;42.88
52249;BME280;38541;48.130;8.378;2022-09-13T13:52:50;92365.44;;;26.10;42.80
52249;BME280;38541;48.130;8.378;2022-09-13T13:55:45;92368.94;;;26.10;42.90
52249;BME280;38541;48.130;8.378;2022-09-13T14:01:22;92362.47;;;26.60;42.39
52249;BME280;38541;48.130;8.378;2022-09-13T14:04:29;92363.38;;;26.78;42.02
52249;BME280;38541;48.130;8.378;2022-09-13T14:07:17;92363.22;;;27.05;41.78
52249;BME280;38541;48.130;8.378;2022-09-13T14:09:51;92350.56;;;27.13;41.47
52249;BME280;38541;48.130;8.378;2022-09-13T14:12:37;92349.00;;;27.12;42.19
52249;BME280;38541;48.130;8.378;2022-09-13T14:17:48;92339.44;;;27.22;40.88
52249;BME280;38541;48.130;8.378;2022-09-13T14:20:19;92330.94;;;27.24;43.09
52249;BME280;38541;48.130;8.378;2022-09-13T14:22:46;92332.88;;;27.23;44.64
52249;BME280;38541;48.130;8.378;2022-09-13T14:27:46;92326.69;;;27.15;39.91
52249;BME280;38541;48.130;8.378;2022-09-13T14:30:23;92323.34;;;27.44;39.17
52249;BME280;38541;48.130;8.378;2022-09-13T14:32:54;92312.72;;;27.98;38.58
52249;BME280;38541;48.130;8.378;2022-09-13T14:35:35;92313.59;;;28.35;38.14
52249;BME280;38541;48.130;8.378;2022-09-13T14:38:19;92309.31;;;28.59;36.72
52249;BME280;38541;48.130;8.378;2022-09-13T14:40:47;92299.69;;;28.76;35.92
52249;BME280;38541;48.130;8.378;2022-09-13T14:43:19;92308.53;;;29.02;34.93
52249;BME280;38541;48.130;8.378;2022-09-13T14:45:48;92304.25;;;29.19;34.36
52249;BME280;38541;48.130;8.378;2022-09-13T14:48:22;92301.47;;;29.34;34.75
52249;BME280;38541;48.130;8.378;2022-09-13T14:51:15;92289.84;;;29.52;35.07
52249;BME280;38541;48.130;8.378;2022-09-13T14:53:46;92291.34;;;29.64;34.29
52249;BME280;38541;48.130;8.378;2022-09-13T14:56:27;92292.44;;;29.73;33.99
52249;BME280;38541;48.130;8.378;2022-09-13T14:58:59;92281.91;;;29.94;34.50
52249;BME280;38541;48.130;8.378;2022-09-13T15:01:34;92281.34;;;30.21;33.20
52249;BME280;38541;48.130;8.378;2022-09-13T15:04:02;92271.19;;;30.36;32.48
52249;BME280;38541;48.130;8.378;2022-09-13T15:06:35;92267.88;;;30.59;32.39
52249;BME280;38541;48.130;8.378;2022-09-13T15:11:41;92265.19;;;30.63;32.54
52249;BME280;38541;48.130;8.378;2022-09-13T15:14:34;92261.28;;;30.11;32.86
52249;BME280;38541;48.130;8.378;2022-09-13T15:19:46;92262.41;;;29.50;32.78
52249;BME280;38541;48.130;8.378;2022-09-13T15:22:30;92259.72;;;29.39;33.60
52249;BME280;38541;48.130;8.378;2022-09-13T15:25:00;92254.31;;;29.39;34.43
52249;BME280;38541;48.130;8.378;2022-09-13T15:27:29;92258.19;;;29.41;36.04
52249;BME280;38541;48.130;8.378;2022-09-13T15:29:59;92260.84;;;29.52;35.34
52249;BME280;38541;48.130;8.378;2022-09-13T15:32:40;92257.78;;;29.43;35.69
52249;BME280;38541;48.130;8.378;2022-09-13T15:37:58;92250.19;;;28.98;35.98
52249;BME280;38541;48.130;8.378;2022-09-13T15:40:27;92252.53;;;28.70;36.52
52249;BME280;38541;48.130;8.378;2022-09-13T15:42:54;92249.88;;;28.52;37.08
52249;BME280;38541;48.130;8.378;2022-09-13T15:45:21;92247.19;;;28.27;38.27
52249;BME280;38541;48.130;8.378;2022-09-13T15:47:50;92243.28;;;28.02;39.56
52249;BME280;38541;48.130;8.378;2022-09-13T15:50:26;92236.72;;;27.85;39.20
52249;BME280;38541;48.130;8.378;2022-09-13T15:52:57;92244.03;;;27.67;40.03
52249;BME280;38541;48.130;8.378;2022-09-13T15:55:25;92234.69;;;27.46;40.49
52249;BME280;38541;48.130;8.378;2022-09-13T15:57:53;92232.31;;;27.26;41.45
52249;BME280;38541;48.130;8.378;2022-09-13T16:00:23;92240.72;;;27.06;41.99
52249;BME280;38541;48.130;8.378;2022-09-13T16:02:50;92243.78;;;26.98;42.42
52249;BME280;38541;48.130;8.378;2022-09-13T16:05:18;92240.25;;;26.90;42.02
52249;BME280;38541;48.130;8.378;2022-09-13T16:07:45;92243.63;;;26.80;42.87
52249;BME280;38541;48.130;8.378;2022-09-13T16:10:18;92242.03;;;26.68;42.88